Time;durP1;ratioP1;P1;durP2;ratioP2;P2;SDS_P1;SDS_P2;PMS_P1;PMS_P2;Temp;Humidity;BMP_temperature;BMP_pressure;BME280_temperature;BME280_humidity;BME280_pressure;Samples;Min_cycle;Max_cycle;Signal;HPM_P1;HPM_P2
2022/05/01 00:01:38;;;;;;;193.65;68.20;;;;;;;;;;5018625;28;20105;-61
2022/05/01 00:04:05;;;;;;;177.85;68.25;;;;;;;;;;5021132;28;20061;-60
2022/05/01 00:06:33;;;;;;;174.77;67.97;;;;;;;;;;5024191;28;20032;-60
2022/05/01 00:09:00;;;;;;;177.75;65.38;;;;;;;;;;5022499;28;20123;-61
2022/05/01 00:11:30;;;;;;;186.98;69.90;;;;;;;;;;5023525;28;20076;-58
2022/05/01 00:14:17;;;;;;;169.38;65.00;;;;;;;;;;5023590;28;20037;-59
2022/05/01 00:16:44;;;;;;;173.77;63.63;;;;;;;;;;5023675;28;20507;-59
2022/05/01 00:19:12;;;;;;;158.13;62.38;;;;;;;;;;5023310;28;20494;-58
2022/05/01 00:21:40;;;;;;;166.98;58.65;;;;;;;;;;5021208;28;20033;-60
2022/05/01 00:24:07;;;;;;;160.95;59.88;;;;;;;;;;5021274;28;20044;-61
2022/05/01 00:26:34;;;;;;;154.25;56.95;;;;;;;;;;5020879;28;20512;-62
2022/05/01 00:29:07;;;;;;;156.38;56.72;;;;;;;;;;5013940;28;20026;-61
2022/05/01 00:31:34;;;;;;;161.02;55.42;;;;;;;;;;5014334;28;20030;-61
2022/05/01 00:36:46;;;;;;;195.63;60.80;;;;;;;;;;5014180;28;20041;-61
2022/05/01 00:39:13;;;;;;;217.38;67.05;;;;;;;;;;5014155;28;20045;-61
2022/05/01 00:41:41;;;;;;;229.40;68.85;;;;;;;;;;5013587;28;20026;-61
2022/05/01 00:44:17;;;;;;;242.38;69.80;;;;;;;;;;5016451;28;20030;-62
2022/05/01 00:46:46;;;;;;;231.45;67.82;;;;;;;;;;5021598;28;20388;-62
2022/05/01 00:49:23;;;;;;;200.55;62.65;;;;;;;;;;5013158;28;20116;-61
2022/05/01 00:52:05;;;;;;;199.02;61.83;;;;;;;;;;5013838;28;20037;-60
2022/05/01 00:54:33;;;;;;;204.57;60.72;;;;;;;;;;5017297;28;20025;-61
2022/05/01 00:57:04;;;;;;;197.98;58.47;;;;;;;;;;5023889;28;20491;-61
2022/05/01 00:59:31;;;;;;;188.82;58.17;;;;;;;;;;5021340;28;20388;-62
2022/05/01 01:01:59;;;;;;;193.48;57.90;;;;;;;;;;5004693;28;20080;-61
2022/05/01 01:04:26;;;;;;;179.80;55.70;;;;;;;;;;5019269;28;20037;-61
2022/05/01 01:06:53;;;;;;;172.25;54.63;;;;;;;;;;5019263;28;20017;-61
2022/05/01 01:09:20;;;;;;;175.93;55.10;;;;;;;;;;5023389;28;20684;-61
2022/05/01 01:11:47;;;;;;;160.82;53.25;;;;;;;;;;5021433;28;20030;-62
2022/05/01 01:14:15;;;;;;;165.13;55.67;;;;;;;;;;5004143;28;21441;-62
2022/05/01 01:16:44;;;;;;;167.68;54.28;;;;;;;;;;5019561;28;20026;-62
2022/05/01 01:19:11;;;;;;;170.73;52.03;;;;;;;;;;5017594;28;20038;-61
2022/05/01 01:21:38;;;;;;;176.45;54.70;;;;;;;;;;5013330;28;20399;-61
2022/05/01 01:24:11;;;;;;;171.70;53.42;;;;;;;;;;5013253;28;20029;-61
2022/05/01 01:26:39;;;;;;;162.02;52.42;;;;;;;;;;4995459;28;20423;-61
2022/05/01 01:31:40;;;;;;;154.75;51.80;;;;;;;;;;5013105;28;20036;-61
2022/05/01 01:31:54;;;;;;;155.70;53.40;;;;;;;;;;5012489;28;20122;-62
2022/05/01 01:34:22;;;;;;;158.68;50.30;;;;;;;;;;5012893;28;20073;-61
2022/05/01 01:36:50;;;;;;;139.80;49.38;;;;;;;;;;5013135;28;20029;-61
2022/05/01 01:39:18;;;;;;;149.43;49.30;;;;;;;;;;5012953;28;20080;-62
2022/05/01 01:41:45;;;;;;;147.80;47.10;;;;;;;;;;5012684;28;20061;-61
2022/05/01 01:44:13;;;;;;;133.90;46.53;;;;;;;;;;5012875;28;20104;-61
2022/05/01 01:46:40;;;;;;;139.57;44.72;;;;;;;;;;5013076;28;20022;-62
2022/05/01 01:49:11;;;;;;;136.00;44.78;;;;;;;;;;5012659;28;20488;-62
2022/05/01 01:51:38;;;;;;;132.40;45.47;;;;;;;;;;5012597;28;20361;-61
2022/05/01 01:54:09;;;;;;;132.93;46.28;;;;;;;;;;5012807;28;20504;-62
2022/05/01 01:56:36;;;;;;;143.63;43.33;;;;;;;;;;5027665;28;20068;-61
2022/05/01 01:59:03;;;;;;;113.72;42.22;;;;;;;;;;5032407;28;20109;-61
2022/05/01 02:01:31;;;;;;;134.15;42.60;;;;;;;;;;5016780;28;20079;-61
2022/05/01 02:03:58;;;;;;;129.90;39.85;;;;;;;;;;5012642;28;20042;-61
2022/05/01 02:06:25;;;;;;;129.63;41.55;;;;;;;;;;5012368;28;20025;-61
2022/05/01 02:08:52;;;;;;;121.57;41.53;;;;;;;;;;5029530;28;20029;-61
2022/05/01 02:11:20;;;;;;;120.60;41.08;;;;;;;;;;5032066;28;20480;-61
2022/05/01 02:13:47;;;;;;;115.18;39.10;;;;;;;;;;5014546;28;20092;-61
2022/05/01 02:16:14;;;;;;;110.35;37.75;;;;;;;;;;5032523;28;20029;-61
2022/05/01 02:18:41;;;;;;;135.63;40.10;;;;;;;;;;5026022;28;20044;-62
2022/05/01 02:23:53;;;;;;;100.25;37.22;;;;;;;;;;5017570;28;20072;-61
2022/05/01 02:26:20;;;;;;;114.88;38.50;;;;;;;;;;5032158;28;20116;-61
2022/05/01 02:28:47;;;;;;;108.53;37.78;;;;;;;;;;5013698;28;20048;-59
2022/05/01 02:31:14;;;;;;;100.68;39.95;;;;;;;;;;5032594;28;20445;-59
2022/05/01 02:33:41;;;;;;;110.43;39.08;;;;;;;;;;5032382;28;20380;-60
2022/05/01 02:36:08;;;;;;;105.03;38.88;;;;;;;;;;5032472;28;20040;-60
2022/05/01 02:38:36;;;;;;;104.25;37.15;;;;;;;;;;5032177;28;20040;-60
2022/05/01 02:41:03;;;;;;;97.93;37.40;;;;;;;;;;5032383;28;20517;-60
2022/05/01 02:43:30;;;;;;;109.43;36.55;;;;;;;;;;5029037;28;20032;-59
2022/05/01 02:45:57;;;;;;;94.53;36.08;;;;;;;;;;5009435;28;20025;-60
2022/05/01 02:48:24;;;;;;;95.00;36.08;;;;;;;;;;5032129;28;20041;-60
2022/05/01 02:50:51;;;;;;;97.57;36.67;;;;;;;;;;5032288;28;20025;-60
2022/05/01 02:53:18;;;;;;;98.05;35.70;;;;;;;;;;5032167;28;20805;-60
2022/05/01 02:55:46;;;;;;;100.40;35.47;;;;;;;;;;5017064;28;20101;-60
2022/05/01 02:58:13;;;;;;;91.47;35.60;;;;;;;;;;5025422;28;20121;-60
2022/05/01 03:00:40;;;;;;;91.55;35.25;;;;;;;;;;5022449;28;20029;-61
2022/05/01 03:03:07;;;;;;;92.22;33.90;;;;;;;;;;5021803;28;20049;-61
2022/05/01 03:05:35;;;;;;;88.32;34.67;;;;;;;;;;5020590;28;20029;-61
2022/05/01 03:08:03;;;;;;;87.85;35.00;;;;;;;;;;5021611;28;20029;-60
2022/05/01 03:10:30;;;;;;;81.43;34.50;;;;;;;;;;5021234;28;20034;-60
2022/05/01 03:12:58;;;;;;;84.90;33.25;;;;;;;;;;5003534;28;20025;-60
2022/05/01 03:15:25;;;;;;;89.97;34.22;;;;;;;;;;5021279;28;20038;-60
2022/05/01 03:23:23;;;;;;;82.18;32.17;;;;;;;;;;5020129;28;20036;-60
2022/05/01 03:25:50;;;;;;;79.15;31.98;;;;;;;;;;5031031;28;20029;-59
2022/05/01 03:28:17;;;;;;;77.30;31.10;;;;;;;;;;5031077;28;20029;-59
2022/05/01 03:30:44;;;;;;;82.03;31.75;;;;;;;;;;5031554;28;20025;-59
2022/05/01 03:33:12;;;;;;;77.63;30.35;;;;;;;;;;5031717;28;20095;-59
2022/05/01 03:35:39;;;;;;;77.32;30.65;;;;;;;;;;5030951;28;20096;-59
2022/05/01 03:38:07;;;;;;;74.72;29.98;;;;;;;;;;5031949;28;20037;-59
2022/05/01 03:40:37;;;;;;;75.22;31.48;;;;;;;;;;5035849;28;20068;-59
2022/05/01 03:43:06;;;;;;;71.40;28.25;;;;;;;;;;5035930;28;20067;-58
2022/05/01 03:45:33;;;;;;;68.57;27.73;;;;;;;;;;5035834;28;20049;-59
2022/05/01 03:48:00;;;;;;;73.13;30.33;;;;;;;;;;5035785;28;20037;-59
2022/05/01 03:50:27;;;;;;;77.68;29.88;;;;;;;;;;5035686;28;20025;-59
2022/05/01 03:52:54;;;;;;;72.47;28.27;;;;;;;;;;5035813;28;20026;-58
2022/05/01 03:55:22;;;;;;;70.88;30.38;;;;;;;;;;5035616;28;20040;-58
2022/05/01 03:57:49;;;;;;;66.72;27.38;;;;;;;;;;5035538;28;20602;-59
2022/05/01 04:00:19;;;;;;;69.63;28.85;;;;;;;;;;5035645;28;20025;-59
2022/05/01 04:02:47;;;;;;;69.18;28.92;;;;;;;;;;5035160;28;20533;-59
2022/05/01 04:05:14;;;;;;;69.80;27.45;;;;;;;;;;5035574;28;20431;-58
2022/05/01 04:07:42;;;;;;;65.43;26.67;;;;;;;;;;5035302;28;20048;-58
2022/05/01 04:10:09;;;;;;;60.90;26.48;;;;;;;;;;5035319;28;20388;-59
2022/05/01 04:12:43;;;;;;;65.70;26.85;;;;;;;;;;5035393;28;20037;-59
2022/05/01 04:15:11;;;;;;;67.68;28.17;;;;;;;;;;5035348;28;20113;-59
2022/05/01 04:17:40;;;;;;;56.55;25.77;;;;;;;;;;5035178;28;20041;-59
2022/05/01 04:20:08;;;;;;;60.80;26.30;;;;;;;;;;5035391;28;20065;-59
2022/05/01 04:26:03;;;;;;;60.08;23.73;;;;;;;;;;4989164;28;20045;-59
2022/05/01 04:28:30;;;;;;;57.90;25.13;;;;;;;;;;5031111;28;20052;-58
2022/05/01 04:30:57;;;;;;;52.58;23.80;;;;;;;;;;5034738;28;20032;-59
2022/05/01 04:33:24;;;;;;;58.75;25.00;;;;;;;;;;5035010;28;20499;-59
2022/05/01 04:35:51;;;;;;;52.28;23.63;;;;;;;;;;5035045;28;20032;-59
2022/05/01 04:38:25;;;;;;;53.60;23.70;;;;;;;;;;5034881;28;20025;-59
2022/05/01 04:40:54;;;;;;;49.50;21.85;;;;;;;;;;5034953;28;20116;-58
2022/05/01 04:43:22;;;;;;;60.90;23.77;;;;;;;;;;5034859;28;20025;-59
2022/05/01 04:45:53;;;;;;;47.72;21.95;;;;;;;;;;5034889;28;20022;-59
2022/05/01 04:48:21;;;;;;;51.67;22.35;;;;;;;;;;5034783;28;20053;-59
2022/05/01 04:50:49;;;;;;;52.08;21.23;;;;;;;;;;5033666;28;20661;-59
2022/05/01 04:53:16;;;;;;;52.65;22.65;;;;;;;;;;5034721;28;20475;-59
2022/05/01 04:55:44;;;;;;;51.88;22.35;;;;;;;;;;5034646;28;20048;-59
2022/05/01 04:58:12;;;;;;;45.88;21.00;;;;;;;;;;5034517;28;20026;-59
2022/05/01 05:00:39;;;;;;;46.05;21.50;;;;;;;;;;5034574;28;20030;-59
2022/05/01 05:03:06;;;;;;;50.22;21.60;;;;;;;;;;5034379;28;20569;-59
2022/05/01 05:05:37;;;;;;;47.97;19.83;;;;;;;;;;5034556;28;20022;-59
2022/05/01 05:10:50;;;;;;;47.17;20.23;;;;;;;;;;5034515;28;20057;-59
2022/05/01 05:13:22;;;;;;;42.08;20.05;;;;;;;;;;5034200;28;20440;-59
2022/05/01 05:15:49;;;;;;;;;;;;;;;;;;5034732;28;20060;-59
2022/05/01 05:18:15;;;;;;;43.30;19.75;;;;;;;;;;5031609;28;19917;-59
2022/05/01 05:20:42;;;;;;;42.85;18.95;;;;;;;;;;5034178;28;20025;-59
2022/05/01 05:23:10;;;;;;;43.13;19.77;;;;;;;;;;5034140;28;20125;-59
2022/05/01 05:25:37;;;;;;;38.42;18.88;;;;;;;;;;5034122;28;20021;-59
2022/05/01 05:28:07;;;;;;;40.53;19.63;;;;;;;;;;5034013;28;20021;-59
2022/05/01 05:30:35;;;;;;;41.25;17.77;;;;;;;;;;5034199;28;20029;-59
2022/05/01 05:33:04;;;;;;;36.15;17.85;;;;;;;;;;5034000;28;20040;-59
2022/05/01 05:35:31;;;;;;;37.38;18.20;;;;;;;;;;5033872;28;20502;-59
2022/05/01 05:37:58;;;;;;;36.25;17.70;;;;;;;;;;5033839;28;20022;-59
2022/05/01 05:40:25;;;;;;;36.92;17.92;;;;;;;;;;5033923;28;20025;-59
2022/05/01 05:42:52;;;;;;;45.80;18.90;;;;;;;;;;5033668;28;20476;-59
2022/05/01 05:45:19;;;;;;;38.65;17.92;;;;;;;;;;5033812;28;20163;-59
2022/05/01 05:47:46;;;;;;;39.22;17.92;;;;;;;;;;5033679;28;20030;-59
2022/05/01 05:50:13;;;;;;;36.97;17.10;;;;;;;;;;5033698;28;20078;-59
2022/05/01 05:52:40;;;;;;;37.17;17.20;;;;;;;;;;5033651;28;20044;-59
2022/05/01 05:55:07;;;;;;;33.75;15.95;;;;;;;;;;5033514;28;20702;-59
2022/05/01 05:57:34;;;;;;;37.85;17.23;;;;;;;;;;5033488;28;20024;-59
2022/05/01 06:00:01;;;;;;;33.80;16.25;;;;;;;;;;5033697;28;20403;-59
2022/05/01 06:02:28;;;;;;;37.72;15.23;;;;;;;;;;5032953;28;20037;-59
2022/05/01 06:04:55;;;;;;;36.55;16.05;;;;;;;;;;5033447;28;20048;-59
2022/05/01 06:07:22;;;;;;;32.97;15.85;;;;;;;;;;5033215;28;20621;-59
2022/05/01 06:12:59;;;;;;;33.95;15.15;;;;;;;;;;5013438;28;20415;-59
2022/05/01 06:15:26;;;;;;;32.15;14.75;;;;;;;;;;5013207;28;20030;-59
2022/05/01 06:17:53;;;;;;;36.05;15.75;;;;;;;;;;5013070;28;20113;-59
2022/05/01 06:20:20;;;;;;;35.08;14.50;;;;;;;;;;5013098;28;20385;-59
2022/05/01 06:22:50;;;;;;;32.05;15.05;;;;;;;;;;5013151;28;20025;-59
2022/05/01 06:25:17;;;;;;;34.63;15.13;;;;;;;;;;5012427;28;20437;-59
2022/05/01 06:27:44;;;;;;;31.25;14.73;;;;;;;;;;5012964;28;20515;-59
2022/05/01 06:30:11;;;;;;;31.40;14.73;;;;;;;;;;5013013;28;20433;-59
2022/05/01 06:32:41;;;;;;;30.20;13.98;;;;;;;;;;5012953;28;20034;-59
2022/05/01 06:35:09;;;;;;;33.05;15.20;;;;;;;;;;5012852;28;20095;-59
2022/05/01 06:37:36;;;;;;;29.92;13.23;;;;;;;;;;5012919;28;20022;-59
2022/05/01 06:40:03;;;;;;;27.58;13.40;;;;;;;;;;5012895;28;20033;-59
2022/05/01 06:42:31;;;;;;;25.75;13.88;;;;;;;;;;5011729;28;20034;-59
2022/05/01 06:44:58;;;;;;;31.13;13.18;;;;;;;;;;5012850;28;20041;-59
2022/05/01 06:47:25;;;;;;;28.95;13.73;;;;;;;;;;5012696;28;20037;-59
2022/05/01 06:49:52;;;;;;;27.48;13.55;;;;;;;;;;5012723;28;20026;-59
2022/05/01 06:52:22;;;;;;;28.63;12.68;;;;;;;;;;5012586;28;20026;-59
2022/05/01 06:54:49;;;;;;;25.38;13.05;;;;;;;;;;5012606;28;20038;-59
2022/05/01 06:57:16;;;;;;;25.90;12.77;;;;;;;;;;5012548;28;20030;-59
2022/05/01 06:59:42;;;;;;;25.60;12.68;;;;;;;;;;5012821;28;20057;-59
2022/05/01 07:02:10;;;;;;;26.27;12.20;;;;;;;;;;5023213;28;20116;-59
2022/05/01 07:04:36;;;;;;;27.25;12.55;;;;;;;;;;5032192;28;20049;-58
2022/05/01 07:07:04;;;;;;;24.98;12.07;;;;;;;;;;5032344;28;20392;-59
2022/05/01 07:09:30;;;;;;;24.58;11.85;;;;;;;;;;5032465;28;20483;-59
2022/05/01 07:11:57;;;;;;;25.33;11.88;;;;;;;;;;5032461;28;20028;-59
2022/05/01 07:14:25;;;;;;;25.70;12.32;;;;;;;;;;5035146;28;20079;-59
2022/05/01 07:16:51;;;;;;;25.27;12.48;;;;;;;;;;5036481;28;20418;-59
2022/05/01 07:19:18;;;;;;;23.83;12.85;;;;;;;;;;5036437;28;20487;-59
2022/05/01 07:21:45;;;;;;;31.23;12.95;;;;;;;;;;5036452;28;20021;-59
2022/05/01 07:24:12;;;;;;;20.23;10.95;;;;;;;;;;5036463;28;20037;-59
2022/05/01 07:26:39;;;;;;;25.45;12.45;;;;;;;;;;5036359;28;20036;-59
2022/05/01 07:29:08;;;;;;;20.65;10.85;;;;;;;;;;5036146;28;20079;-59
2022/05/01 07:31:35;;;;;;;23.35;11.23;;;;;;;;;;5036176;28;20427;-59
2022/05/01 07:34:01;;;;;;;19.30;10.75;;;;;;;;;;5036112;28;20033;-59
2022/05/01 07:36:28;;;;;;;22.70;10.43;;;;;;;;;;5036197;28;20032;-59
2022/05/01 07:38:57;;;;;;;20.67;10.43;;;;;;;;;;5036003;28;20549;-59
2022/05/01 07:41:24;;;;;;;21.85;11.65;;;;;;;;;;5035814;28;20060;-59
2022/05/01 07:43:51;;;;;;;21.83;10.32;;;;;;;;;;5035869;28;20057;-59
2022/05/01 07:46:18;;;;;;;23.58;11.48;;;;;;;;;;5035379;28;20064;-59
2022/05/01 07:48:45;;;;;;;20.02;9.82;;;;;;;;;;5035435;28;20029;-59
2022/05/01 07:51:12;;;;;;;19.17;10.77;;;;;;;;;;5035942;28;20033;-59
2022/05/01 07:53:39;;;;;;;20.10;10.32;;;;;;;;;;5035590;28;20098;-59
2022/05/01 07:56:06;;;;;;;17.88;10.50;;;;;;;;;;5035742;28;20485;-59
2022/05/01 07:58:33;;;;;;;20.05;9.85;;;;;;;;;;5035702;28;20033;-59
2022/05/01 08:01:02;;;;;;;19.92;9.73;;;;;;;;;;5035703;28;20040;-59
2022/05/01 08:06:15;;;;;;;16.35;9.60;;;;;;;;;;5035974;28;20586;-58
2022/05/01 08:08:42;;;;;;;19.50;9.43;;;;;;;;;;5035513;28;20495;-59
2022/05/01 08:11:12;;;;;;;17.58;9.52;;;;;;;;;;5035538;28;20052;-59
2022/05/01 08:13:39;;;;;;;16.45;8.88;;;;;;;;;;5035438;28;20052;-59
2022/05/01 08:16:06;;;;;;;18.40;8.85;;;;;;;;;;5035384;28;20032;-59
2022/05/01 08:21:18;;;;;;;18.75;8.75;;;;;;;;;;5035404;28;20525;-59
2022/05/01 08:23:45;;;;;;;17.88;8.85;;;;;;;;;;5035170;28;20053;-58
2022/05/01 08:29:23;;;;;;;19.77;9.65;;;;;;;;;;5031999;28;20466;-59
2022/05/01 08:31:50;;;;;;;16.95;9.23;;;;;;;;;;5033624;28;20044;-59
2022/05/01 08:34:17;;;;;;;15.68;8.30;;;;;;;;;;5034219;28;20518;-59
2022/05/01 08:36:45;;;;;;;16.55;8.20;;;;;;;;;;5034498;28;20101;-59
2022/05/01 08:39:12;;;;;;;14.65;8.52;;;;;;;;;;5034700;28;20467;-59
2022/05/01 08:41:39;;;;;;;15.93;8.70;;;;;;;;;;5034697;28;20082;-59
2022/05/01 08:44:07;;;;;;;15.05;8.13;;;;;;;;;;5034471;28;20443;-59
2022/05/01 08:46:52;;;;;;;13.55;8.05;;;;;;;;;;5014227;28;20084;-59
2022/05/01 08:49:21;;;;;;;15.48;7.82;;;;;;;;;;5034850;28;20028;-59
2022/05/01 08:51:48;;;;;;;16.00;8.43;;;;;;;;;;5034836;28;20029;-59
2022/05/01 08:54:16;;;;;;;14.95;8.32;;;;;;;;;;5034662;28;20124;-59
2022/05/01 08:56:44;;;;;;;12.52;7.20;;;;;;;;;;5034705;28;20112;-58
2022/05/01 08:59:12;;;;;;;13.45;7.55;;;;;;;;;;5034685;28;20037;-59
2022/05/01 09:01:40;;;;;;;15.57;7.70;;;;;;;;;;5034541;28;20040;-59
2022/05/01 09:04:08;;;;;;;15.85;7.57;;;;;;;;;;5034513;28;20045;-59
2022/05/01 09:06:35;;;;;;;13.23;7.30;;;;;;;;;;5034366;28;20034;-59
2022/05/01 09:09:09;;;;;;;10.65;6.53;;;;;;;;;;5034555;28;20028;-59
2022/05/01 09:14:23;;;;;;;11.60;6.90;;;;;;;;;;5034332;28;20076;-59
2022/05/01 09:17:08;;;;;;;12.25;7.38;;;;;;;;;;5034275;28;20021;-59
2022/05/01 09:19:35;;;;;;;13.45;6.80;;;;;;;;;;5034198;28;20492;-59
2022/05/01 09:25:16;;;;;;;13.23;6.70;;;;;;;;;;5035196;28;20095;-59
2022/05/01 09:27:43;;;;;;;11.13;6.72;;;;;;;;;;5033840;28;20037;-59
2022/05/01 09:30:13;;;;;;;12.23;6.50;;;;;;;;;;5033822;28;20480;-59
2022/05/01 09:32:41;;;;;;;13.18;6.40;;;;;;;;;;5033874;28;20025;-59
2022/05/01 09:35:09;;;;;;;13.98;6.82;;;;;;;;;;5033863;28;20377;-59
2022/05/01 09:37:48;;;;;;;10.95;6.47;;;;;;;;;;5028111;28;20083;-59
2022/05/01 09:40:32;;;;;;;13.10;6.05;;;;;;;;;;5033873;28;20029;-59
2022/05/01 09:42:59;;;;;;;9.30;5.72;;;;;;;;;;5033779;28;20033;-58
2022/05/01 09:45:33;;;;;;;12.60;6.45;;;;;;;;;;5033813;28;20445;-59
2022/05/01 09:48:00;;;;;;;9.88;5.70;;;;;;;;;;5033980;28;20434;-59
2022/05/01 09:50:40;;;;;;;13.43;6.43;;;;;;;;;;5033644;28;20105;-59
2022/05/01 09:53:07;;;;;;;11.85;6.13;;;;;;;;;;5033603;28;20544;-59
2022/05/01 09:55:35;;;;;;;9.88;5.95;;;;;;;;;;5033577;28;20506;-59
2022/05/01 09:58:08;;;;;;;9.93;6.25;;;;;;;;;;5033414;28;20025;-59
2022/05/01 10:00:39;;;;;;;10.82;5.80;;;;;;;;;;5033450;28;20022;-59
2022/05/01 10:03:24;;;;;;;7.25;4.78;;;;;;;;;;5033175;28;20080;-59
2022/05/01 10:05:52;;;;;;;9.40;5.50;;;;;;;;;;5033410;28;20044;-59
2022/05/01 10:08:20;;;;;;;10.10;5.07;;;;;;;;;;5033327;28;20492;-59
2022/05/01 10:10:49;;;;;;;10.63;5.55;;;;;;;;;;5033099;28;20109;-59
2022/05/01 10:13:17;;;;;;;10.95;6.00;;;;;;;;;;5033160;28;20033;-59
2022/05/01 10:15:44;;;;;;;10.23;5.50;;;;;;;;;;5033290;28;20096;-59
2022/05/01 10:18:11;;;;;;;8.38;5.43;;;;;;;;;;5015256;28;20029;-59
2022/05/01 10:20:38;;;;;;;9.82;5.30;;;;;;;;;;5033332;28;20033;-59
2022/05/01 10:23:05;;;;;;;7.95;4.68;;;;;;;;;;5033076;28;20032;-59
2022/05/01 10:25:34;;;;;;;8.60;4.68;;;;;;;;;;5033017;28;20391;-59
2022/05/01 10:28:18;;;;;;;8.85;5.07;;;;;;;;;;5032895;28;20060;-59
2022/05/01 10:34:13;;;;;;;11.10;5.47;;;;;;;;;;5032905;28;20149;-59
2022/05/01 10:36:53;;;;;;;8.27;4.75;;;;;;;;;;5032650;28;20565;-59
2022/05/01 10:39:20;;;;;;;10.18;5.18;;;;;;;;;;5032618;28;20078;-59
2022/05/01 10:41:48;;;;;;;8.77;4.63;;;;;;;;;;5032674;28;20033;-59
2022/05/01 10:44:33;;;;;;;8.85;5.10;;;;;;;;;;5032699;28;20025;-59
2022/05/01 10:47:12;;;;;;;11.38;5.20;;;;;;;;;;5032319;28;20086;-59
2022/05/01 10:49:43;;;;;;;8.88;4.88;;;;;;;;;;5031985;28;20391;-59
2022/05/01 10:52:17;;;;;;;8.00;4.82;;;;;;;;;;5032522;28;20025;-59
2022/05/01 10:54:51;;;;;;;9.38;4.60;;;;;;;;;;5032319;28;20502;-59
2022/05/01 10:57:18;;;;;;;7.68;4.30;;;;;;;;;;5032391;28;20027;-59
2022/05/01 10:59:49;;;;;;;7.18;4.40;;;;;;;;;;5032412;28;20021;-59
2022/05/01 11:02:29;;;;;;;8.43;4.57;;;;;;;;;;5032291;28;20574;-59
2022/05/01 11:04:56;;;;;;;8.38;4.43;;;;;;;;;;5014295;28;20079;-59
2022/05/01 11:07:25;;;;;;;9.48;4.60;;;;;;;;;;5030569;28;20045;-59
2022/05/01 11:09:52;;;;;;;8.20;4.40;;;;;;;;;;5030229;28;20040;-58
2022/05/01 11:12:21;;;;;;;7.20;4.25;;;;;;;;;;5032119;28;20034;-59
2022/05/01 11:14:52;;;;;;;6.25;3.80;;;;;;;;;;5032395;28;20083;-59
2022/05/01 11:17:48;;;;;;;7.13;4.80;;;;;;;;;;5032411;28;20104;-58
2022/05/01 11:23:30;;;;;;;6.85;4.15;;;;;;;;;;5019480;28;20472;-59
2022/05/01 11:26:07;;;;;;;8.33;4.10;;;;;;;;;;5012130;28;20068;-59
2022/05/01 11:28:52;;;;;;;9.85;3.90;;;;;;;;;;5011951;28;20297;-59
2022/05/01 11:31:37;;;;;;;8.20;3.72;;;;;;;;;;5014414;28;20084;-59
2022/05/01 11:34:21;;;;;;;8.48;3.70;;;;;;;;;;5012104;28;20034;-59
2022/05/01 11:36:54;;;;;;;10.00;3.95;;;;;;;;;;5012644;28;20044;-60
2022/05/01 11:39:22;;;;;;;5.65;3.33;;;;;;;;;;5026052;28;20514;-61
2022/05/01 11:42:00;;;;;;;9.00;4.13;;;;;;;;;;5031797;28;20068;-61
2022/05/01 11:44:29;;;;;;;11.32;4.07;;;;;;;;;;5031675;28;20065;-61
2022/05/01 11:46:58;;;;;;;10.00;4.07;;;;;;;;;;5031536;28;20022;-61
2022/05/01 11:49:28;;;;;;;12.02;3.47;;;;;;;;;;5031790;28;20471;-61
2022/05/01 11:51:59;;;;;;;14.93;4.13;;;;;;;;;;5031779;28;20029;-61
2022/05/01 11:54:26;;;;;;;9.65;3.15;;;;;;;;;;5031681;28;20507;-61
2022/05/01 12:02:26;;;;;;;9.52;3.17;;;;;;;;;;5035302;28;20411;-61
2022/05/01 12:04:59;;;;;;;9.48;3.30;;;;;;;;;;5029176;28;20056;-61
2022/05/01 12:07:26;;;;;;;6.97;3.10;;;;;;;;;;5023671;28;20368;-61
2022/05/01 12:09:53;;;;;;;7.85;3.35;;;;;;;;;;5025738;28;20033;-61
2022/05/01 12:12:20;;;;;;;9.65;4.93;;;;;;;;;;5006972;28;20507;-61
2022/05/01 12:17:58;;;;;;;13.25;6.38;;;;;;;;;;5024274;28;20870;-61
2022/05/01 12:20:34;;;;;;;12.30;4.85;;;;;;;;;;5023839;28;20060;-61
2022/05/01 12:23:01;;;;;;;10.50;4.10;;;;;;;;;;5024329;28;20033;-61
2022/05/01 12:25:28;;;;;;;12.82;4.95;;;;;;;;;;5025355;28;20617;-61
2022/05/01 12:27:56;;;;;;;12.45;4.57;;;;;;;;;;5023703;28;20049;-61
2022/05/01 12:30:26;;;;;;;10.95;5.20;;;;;;;;;;5023950;28;20036;-61
2022/05/01 12:32:54;;;;;;;15.27;5.40;;;;;;;;;;5025359;28;20021;-61
2022/05/01 12:35:21;;;;;;;9.68;4.53;;;;;;;;;;5024298;28;20061;-61
2022/05/01 12:37:51;;;;;;;10.90;4.90;;;;;;;;;;5023084;28;20072;-61
2022/05/01 12:45:55;;;;;;;12.70;5.30;;;;;;;;;;5023689;28;20502;-61
2022/05/01 12:48:22;;;;;;;11.25;4.70;;;;;;;;;;5022369;28;20035;-61
2022/05/01 12:50:53;;;;;;;11.60;4.68;;;;;;;;;;5026816;28;20034;-61
2022/05/01 12:53:27;;;;;;;13.75;4.53;;;;;;;;;;5021206;28;20034;-61
2022/05/01 12:55:55;;;;;;;11.75;5.20;;;;;;;;;;5015093;28;20064;-61
2022/05/01 12:58:32;;;;;;;10.27;4.65;;;;;;;;;;5013515;28;20029;-61
2022/05/01 13:01:03;;;;;;;11.90;4.35;;;;;;;;;;5013712;28;20038;-61
2022/05/01 13:03:36;;;;;;;13.10;5.10;;;;;;;;;;5013218;28;20073;-62
2022/05/01 13:06:03;;;;;;;14.20;4.22;;;;;;;;;;5019272;28;20037;-62
2022/05/01 13:08:32;;;;;;;19.08;4.95;;;;;;;;;;5024648;28;20037;-62
2022/05/01 13:11:28;;;;;;;14.43;4.72;;;;;;;;;;5022761;28;20488;-62
2022/05/01 13:13:55;;;;;;;17.85;5.28;;;;;;;;;;5006283;28;20491;-62
2022/05/01 13:16:34;;;;;;;14.77;4.60;;;;;;;;;;5021187;28;20117;-62
2022/05/01 13:19:09;;;;;;;19.45;4.63;;;;;;;;;;5015856;28;20076;-62
2022/05/01 13:21:37;;;;;;;15.65;5.30;;;;;;;;;;5012811;28;20124;-62
2022/05/01 13:24:12;;;;;;;21.27;4.30;;;;;;;;;;5013570;28;20025;-62
2022/05/01 13:26:39;;;;;;;16.83;4.30;;;;;;;;;;5013032;28;20049;-62
2022/05/01 13:29:07;;;;;;;17.20;4.80;;;;;;;;;;5021256;28;20044;-62
2022/05/01 13:31:35;;;;;;;16.38;4.60;;;;;;;;;;5022436;28;20490;-62
2022/05/01 13:34:03;;;;;;;13.18;3.67;;;;;;;;;;5021585;28;20064;-62
2022/05/01 13:36:30;;;;;;;17.55;4.28;;;;;;;;;;5023386;28;20028;-62
2022/05/01 13:38:58;;;;;;;10.35;3.78;;;;;;;;;;5022572;28;20030;-62
2022/05/01 13:44:45;;;;;;;13.38;4.15;;;;;;;;;;5022368;28;20519;-62
2022/05/01 13:47:16;;;;;;;13.23;3.78;;;;;;;;;;5021056;28;20033;-62
2022/05/01 13:49:44;;;;;;;12.15;4.22;;;;;;;;;;5017154;28;20487;-62
2022/05/01 13:52:12;;;;;;;9.27;3.55;;;;;;;;;;5012224;28;20053;-62
2022/05/01 13:54:39;;;;;;;13.07;3.40;;;;;;;;;;5012358;28;20080;-61
2022/05/01 13:57:06;;;;;;;13.05;3.50;;;;;;;;;;5012547;28;20046;-62
2022/05/01 13:59:33;;;;;;;8.48;3.38;;;;;;;;;;5014291;28;20939;-62
2022/05/01 14:02:00;;;;;;;8.73;3.25;;;;;;;;;;5032898;28;20028;-62
2022/05/01 14:04:28;;;;;;;12.65;3.53;;;;;;;;;;5032253;28;20045;-62
2022/05/01 14:06:57;;;;;;;7.28;2.78;;;;;;;;;;5015139;28;20434;-62
2022/05/01 14:09:24;;;;;;;12.80;3.50;;;;;;;;;;5032772;28;20032;-61
2022/05/01 14:11:52;;;;;;;12.95;4.35;;;;;;;;;;5032365;28;20033;-62
2022/05/01 14:14:19;;;;;;;13.93;3.22;;;;;;;;;;5032685;28;20038;-62
2022/05/01 14:16:47;;;;;;;9.98;3.33;;;;;;;;;;5032548;28;20052;-62
2022/05/01 14:19:27;;;;;;;12.55;3.03;;;;;;;;;;5032184;28;20021;-62
2022/05/01 14:21:59;;;;;;;10.15;3.25;;;;;;;;;;5032508;28;20128;-61
2022/05/01 14:24:26;;;;;;;13.63;2.97;;;;;;;;;;5032142;28;20033;-62
2022/05/01 14:26:53;;;;;;;7.05;3.25;;;;;;;;;;5031871;28;20419;-61
2022/05/01 14:29:20;;;;;;;9.32;3.08;;;;;;;;;;4998849;28;20483;-62
2022/05/01 14:32:05;;;;;;;8.40;3.20;;;;;;;;;;5032399;28;20026;-62
2022/05/01 14:34:38;;;;;;;14.27;3.55;;;;;;;;;;5029231;28;20120;-62
2022/05/01 14:37:31;;;;;;;9.38;3.22;;;;;;;;;;5029481;28;20021;-62
2022/05/01 14:40:03;;;;;;;13.20;3.58;;;;;;;;;;5013285;28;20124;-62
2022/05/01 14:42:33;;;;;;;13.57;3.30;;;;;;;;;;5031512;28;20047;-62
2022/05/01 14:45:03;;;;;;;12.55;3.40;;;;;;;;;;5032222;28;20037;-62
2022/05/01 14:47:34;;;;;;;13.73;3.03;;;;;;;;;;5030662;28;20021;-62
2022/05/01 14:50:02;;;;;;;14.35;3.45;;;;;;;;;;5028403;28;20041;-61
2022/05/01 14:52:30;;;;;;;17.88;3.33;;;;;;;;;;5029065;28;20081;-62
2022/05/01 14:54:58;;;;;;;17.42;3.22;;;;;;;;;;5031564;28;20042;-62
2022/05/01 14:57:26;;;;;;;15.75;3.10;;;;;;;;;;5031208;28;20025;-59
2022/05/01 15:08:18;;;;;;;12.50;3.08;;;;;;;;;;5031772;28;20515;-59
2022/05/01 15:10:45;;;;;;;20.15;3.38;;;;;;;;;;5031592;28;20033;-61
2022/05/01 15:13:13;;;;;;;15.25;3.80;;;;;;;;;;5031881;28;20043;-60
2022/05/01 15:15:43;;;;;;;11.88;2.90;;;;;;;;;;5031761;28;20033;-60
2022/05/01 15:18:14;;;;;;;18.13;3.70;;;;;;;;;;5031425;28;20021;-60
2022/05/01 15:20:48;;;;;;;17.15;3.40;;;;;;;;;;5031750;28;20373;-60
2022/05/01 15:23:22;;;;;;;20.00;3.50;;;;;;;;;;5031762;28;20065;-60
2022/05/01 15:25:55;;;;;;;16.77;3.25;;;;;;;;;;5031571;28;20502;-60
2022/05/01 15:28:22;;;;;;;14.35;3.00;;;;;;;;;;5031660;28;20033;-60
2022/05/01 15:30:52;;;;;;;17.40;3.33;;;;;;;;;;5031620;28;20438;-60
2022/05/01 15:35:57;;;;;;;17.77;4.13;;;;;;;;;;5035172;28;20540;-60
2022/05/01 15:38:32;;;;;;;19.23;4.40;;;;;;;;;;5035445;28;20032;-60
2022/05/01 15:41:15;;;;;;;13.98;3.25;;;;;;;;;;5035410;28;20036;-60
2022/05/01 15:43:43;;;;;;;15.90;3.60;;;;;;;;;;5032156;28;20045;-60
2022/05/01 15:46:22;;;;;;;16.65;3.65;;;;;;;;;;5035400;28;20037;-60